sensor_id;sensor_type;location;lat;lon;timestamp;temperature;humidity
10042;DHT22;5061;49.068;12.058;2023-05-07T00:02:54;12.90;99.90
10042;DHT22;5061;49.068;12.058;2023-05-07T00:06:15;12.90;99.90
10042;DHT22;5061;49.068;12.058;2023-05-07T00:09:36;12.90;99.90
10042;DHT22;5061;49.068;12.058;2023-05-07T00:12:58;12.90;99.90
10042;DHT22;5061;49.068;12.058;2023-05-07T00:16:19;12.80;99.90
10042;DHT22;5061;49.068;12.058;2023-05-07T00:19:40;12.80;99.90
10042;DHT22;5061;49.068;12.058;2023-05-07T00:23:01;12.80;99.90
10042;DHT22;5061;49.068;12.058;2023-05-07T00:26:25;12.80;99.90
10042;DHT22;5061;49.068;12.058;2023-05-07T00:29:47;12.80;99.90
10042;DHT22;5061;49.068;12.058;2023-05-07T00:33:08;12.80;99.90
10042;DHT22;5061;49.068;12.058;2023-05-07T00:36:30;12.80;99.90
10042;DHT22;5061;49.068;12.058;2023-05-07T00:39:51;12.70;99.90
10042;DHT22;5061;49.068;12.058;2023-05-07T00:43:12;12.70;99.90
10042;DHT22;5061;49.068;12.058;2023-05-07T00:46:39;12.70;99.90
10042;DHT22;5061;49.068;12.058;2023-05-07T00:50:01;12.70;99.90
10042;DHT22;5061;49.068;12.058;2023-05-07T00:53:22;12.70;99.90
10042;DHT22;5061;49.068;12.058;2023-05-07T00:56:43;12.70;99.90
10042;DHT22;5061;49.068;12.058;2023-05-07T01:00:09;12.70;99.90
10042;DHT22;5061;49.068;12.058;2023-05-07T01:03:30;12.70;99.90
10042;DHT22;5061;49.068;12.058;2023-05-07T01:06:53;12.70;99.90
10042;DHT22;5061;49.068;12.058;2023-05-07T01:10:20;12.60;99.90
10042;DHT22;5061;49.068;12.058;2023-05-07T01:13:41;12.60;99.90
10042;DHT22;5061;49.068;12.058;2023-05-07T01:17:04;12.60;99.90
10042;DHT22;5061;49.068;12.058;2023-05-07T01:20:25;12.60;99.90
10042;DHT22;5061;49.068;12.058;2023-05-07T01:23:47;12.60;99.90
10042;DHT22;5061;49.068;12.058;2023-05-07T01:27:11;12.60;99.90
10042;DHT22;5061;49.068;12.058;2023-05-07T01:30:33;12.50;99.90
10042;DHT22;5061;49.068;12.058;2023-05-07T01:33:57;12.60;99.90
10042;DHT22;5061;49.068;12.058;2023-05-07T01:37:20;12.50;99.90
10042;DHT22;5061;49.068;12.058;2023-05-07T01:40:42;12.50;99.90
10042;DHT22;5061;49.068;12.058;2023-05-07T01:44:05;12.50;99.90
10042;DHT22;5061;49.068;12.058;2023-05-07T01:47:27;12.50;99.90
10042;DHT22;5061;49.068;12.058;2023-05-07T01:50:48;12.40;99.90
10042;DHT22;5061;49.068;12.058;2023-05-07T01:54:10;12.50;99.90
10042;DHT22;5061;49.068;12.058;2023-05-07T01:57:31;12.40;99.90
10042;DHT22;5061;49.068;12.058;2023-05-07T02:00:53;12.40;99.90
10042;DHT22;5061;49.068;12.058;2023-05-07T02:04:14;12.40;99.90
10042;DHT22;5061;49.068;12.058;2023-05-07T02:07:35;12.40;99.90
10042;DHT22;5061;49.068;12.058;2023-05-07T02:10:56;12.40;99.90
10042;DHT22;5061;49.068;12.058;2023-05-07T02:14:18;12.40;99.90
10042;DHT22;5061;49.068;12.058;2023-05-07T02:18:02;12.40;99.90
10042;DHT22;5061;49.068;12.058;2023-05-07T02:21:23;12.30;99.90
10042;DHT22;5061;49.068;12.058;2023-05-07T02:24:44;12.30;99.90
10042;DHT22;5061;49.068;12.058;2023-05-07T02:28:05;12.30;99.90
10042;DHT22;5061;49.068;12.058;2023-05-07T02:31:26;12.30;99.90
10042;DHT22;5061;49.068;12.058;2023-05-07T02:34:50;12.20;99.90
10042;DHT22;5061;49.068;12.058;2023-05-07T02:38:12;12.30;99.90
10042;DHT22;5061;49.068;12.058;2023-05-07T02:41:33;12.20;99.90
10042;DHT22;5061;49.068;12.058;2023-05-07T02:44:54;12.30;99.90
10042;DHT22;5061;49.068;12.058;2023-05-07T02:48:15;12.30;99.90
10042;DHT22;5061;49.068;12.058;2023-05-07T02:51:37;12.20;99.90
10042;DHT22;5061;49.068;12.058;2023-05-07T02:55:00;12.20;99.90
10042;DHT22;5061;49.068;12.058;2023-05-07T02:58:22;12.20;99.90
10042;DHT22;5061;49.068;12.058;2023-05-07T03:01:43;12.20;99.90
10042;DHT22;5061;49.068;12.058;2023-05-07T03:05:06;12.10;99.90
10042;DHT22;5061;49.068;12.058;2023-05-07T03:08:28;12.10;99.90
10042;DHT22;5061;49.068;12.058;2023-05-07T03:11:49;12.10;99.90
10042;DHT22;5061;49.068;12.058;2023-05-07T03:15:10;12.00;99.90
10042;DHT22;5061;49.068;12.058;2023-05-07T03:18:35;12.00;99.90
10042;DHT22;5061;49.068;12.058;2023-05-07T03:21:56;12.00;99.90
10042;DHT22;5061;49.068;12.058;2023-05-07T03:25:17;12.00;99.90
10042;DHT22;5061;49.068;12.058;2023-05-07T03:28:38;11.90;99.90
10042;DHT22;5061;49.068;12.058;2023-05-07T03:32:02;11.90;99.90
10042;DHT22;5061;49.068;12.058;2023-05-07T03:35:23;11.90;99.90
10042;DHT22;5061;49.068;12.058;2023-05-07T03:38:44;11.90;99.90
10042;DHT22;5061;49.068;12.058;2023-05-07T03:42:05;11.80;99.90
10042;DHT22;5061;49.068;12.058;2023-05-07T03:45:26;11.80;99.90
10042;DHT22;5061;49.068;12.058;2023-05-07T03:48:47;11.80;99.90
10042;DHT22;5061;49.068;12.058;2023-05-07T03:52:08;11.70;99.90
10042;DHT22;5061;49.068;12.058;2023-05-07T03:55:30;11.70;99.90
10042;DHT22;5061;49.068;12.058;2023-05-07T03:58:51;11.70;99.90
10042;DHT22;5061;49.068;12.058;2023-05-07T04:02:12;11.70;99.90
10042;DHT22;5061;49.068;12.058;2023-05-07T04:05:34;11.70;99.90
10042;DHT22;5061;49.068;12.058;2023-05-07T04:08:55;11.70;99.90
10042;DHT22;5061;49.068;12.058;2023-05-07T04:12:17;11.70;99.90
10042;DHT22;5061;49.068;12.058;2023-05-07T04:15:38;11.70;99.90
10042;DHT22;5061;49.068;12.058;2023-05-07T04:18:59;11.70;99.90
10042;DHT22;5061;49.068;12.058;2023-05-07T04:22:19;11.70;99.90
10042;DHT22;5061;49.068;12.058;2023-05-07T04:25:41;11.70;99.90
10042;DHT22;5061;49.068;12.058;2023-05-07T04:29:02;11.70;99.90
10042;DHT22;5061;49.068;12.058;2023-05-07T04:32:24;11.70;99.90
10042;DHT22;5061;49.068;12.058;2023-05-07T04:35:45;11.70;99.90
10042;DHT22;5061;49.068;12.058;2023-05-07T04:39:07;11.70;99.90
10042;DHT22;5061;49.068;12.058;2023-05-07T04:42:27;11.70;99.90
10042;DHT22;5061;49.068;12.058;2023-05-07T04:45:50;11.70;99.90
10042;DHT22;5061;49.068;12.058;2023-05-07T04:49:12;11.70;99.90
10042;DHT22;5061;49.068;12.058;2023-05-07T04:52:33;11.80;99.90
10042;DHT22;5061;49.068;12.058;2023-05-07T04:55:55;11.80;99.90
10042;DHT22;5061;49.068;12.058;2023-05-07T04:59:17;11.90;99.90
10042;DHT22;5061;49.068;12.058;2023-05-07T05:02:39;12.00;99.90
10042;DHT22;5061;49.068;12.058;2023-05-07T05:06:00;12.00;99.90
10042;DHT22;5061;49.068;12.058;2023-05-07T05:09:22;12.10;99.90
10042;DHT22;5061;49.068;12.058;2023-05-07T05:12:43;12.10;99.90
10042;DHT22;5061;49.068;12.058;2023-05-07T05:16:05;12.20;99.90
10042;DHT22;5061;49.068;12.058;2023-05-07T05:19:26;12.40;99.90
10042;DHT22;5061;49.068;12.058;2023-05-07T05:22:48;12.50;99.90
10042;DHT22;5061;49.068;12.058;2023-05-07T05:26:09;12.60;99.90
10042;DHT22;5061;49.068;12.058;2023-05-07T05:29:30;12.70;99.90
10042;DHT22;5061;49.068;12.058;2023-05-07T05:32:52;12.70;99.90
10042;DHT22;5061;49.068;12.058;2023-05-07T05:36:13;12.80;99.90
10042;DHT22;5061;49.068;12.058;2023-05-07T05:39:34;12.90;99.90
10042;DHT22;5061;49.068;12.058;2023-05-07T05:42:54;13.00;99.90
10042;DHT22;5061;49.068;12.058;2023-05-07T05:46:16;13.10;99.90
10042;DHT22;5061;49.068;12.058;2023-05-07T05:49:37;13.10;99.90
10042;DHT22;5061;49.068;12.058;2023-05-07T05:53:01;13.20;99.90
10042;DHT22;5061;49.068;12.058;2023-05-07T05:56:23;13.30;99.90
10042;DHT22;5061;49.068;12.058;2023-05-07T05:59:44;13.40;99.90
10042;DHT22;5061;49.068;12.058;2023-05-07T06:03:05;13.40;99.90
10042;DHT22;5061;49.068;12.058;2023-05-07T06:06:26;13.40;99.90
10042;DHT22;5061;49.068;12.058;2023-05-07T06:09:48;13.50;99.90
10042;DHT22;5061;49.068;12.058;2023-05-07T06:13:09;13.50;99.90
10042;DHT22;5061;49.068;12.058;2023-05-07T06:16:30;13.60;99.90
10042;DHT22;5061;49.068;12.058;2023-05-07T06:19:52;13.60;99.90
10042;DHT22;5061;49.068;12.058;2023-05-07T06:23:14;13.60;99.90
10042;DHT22;5061;49.068;12.058;2023-05-07T06:26:35;13.70;99.90
10042;DHT22;5061;49.068;12.058;2023-05-07T06:29:56;13.70;99.90
10042;DHT22;5061;49.068;12.058;2023-05-07T06:33:18;13.80;99.90
10042;DHT22;5061;49.068;12.058;2023-05-07T06:36:40;13.80;99.90
10042;DHT22;5061;49.068;12.058;2023-05-07T06:40:02;13.90;99.90
10042;DHT22;5061;49.068;12.058;2023-05-07T06:43:24;13.90;99.90
10042;DHT22;5061;49.068;12.058;2023-05-07T06:46:45;14.00;99.90
10042;DHT22;5061;49.068;12.058;2023-05-07T06:50:06;14.20;99.90
10042;DHT22;5061;49.068;12.058;2023-05-07T06:53:28;14.30;99.90
10042;DHT22;5061;49.068;12.058;2023-05-07T06:56:49;14.40;99.90
10042;DHT22;5061;49.068;12.058;2023-05-07T07:00:11;14.60;99.90
10042;DHT22;5061;49.068;12.058;2023-05-07T07:03:32;14.70;99.90
10042;DHT22;5061;49.068;12.058;2023-05-07T07:06:54;14.80;99.90
10042;DHT22;5061;49.068;12.058;2023-05-07T07:10:15;14.90;99.90
10042;DHT22;5061;49.068;12.058;2023-05-07T07:13:37;15.00;99.90
10042;DHT22;5061;49.068;12.058;2023-05-07T07:16:58;15.10;99.90
10042;DHT22;5061;49.068;12.058;2023-05-07T07:20:19;15.10;99.90
10042;DHT22;5061;49.068;12.058;2023-05-07T07:23:40;15.20;99.90
10042;DHT22;5061;49.068;12.058;2023-05-07T07:27:01;15.30;99.90
10042;DHT22;5061;49.068;12.058;2023-05-07T07:30:23;15.40;99.90
10042;DHT22;5061;49.068;12.058;2023-05-07T07:33:44;15.50;99.90
10042;DHT22;5061;49.068;12.058;2023-05-07T07:37:06;15.60;99.90
10042;DHT22;5061;49.068;12.058;2023-05-07T07:40:27;15.80;99.90
10042;DHT22;5061;49.068;12.058;2023-05-07T07:43:49;15.80;99.90
10042;DHT22;5061;49.068;12.058;2023-05-07T07:47:10;15.90;99.90
10042;DHT22;5061;49.068;12.058;2023-05-07T07:50:31;16.00;99.90
10042;DHT22;5061;49.068;12.058;2023-05-07T07:53:52;16.00;99.90
10042;DHT22;5061;49.068;12.058;2023-05-07T07:57:14;16.10;99.90
10042;DHT22;5061;49.068;12.058;2023-05-07T08:00:36;16.20;99.90
10042;DHT22;5061;49.068;12.058;2023-05-07T08:03:57;16.30;99.90
10042;DHT22;5061;49.068;12.058;2023-05-07T08:07:19;16.40;99.90
10042;DHT22;5061;49.068;12.058;2023-05-07T08:10:41;16.50;99.90
10042;DHT22;5061;49.068;12.058;2023-05-07T08:14:02;16.60;99.90
10042;DHT22;5061;49.068;12.058;2023-05-07T08:17:23;16.60;99.90
10042;DHT22;5061;49.068;12.058;2023-05-07T08:20:44;16.60;99.90
10042;DHT22;5061;49.068;12.058;2023-05-07T08:24:06;16.70;99.90
10042;DHT22;5061;49.068;12.058;2023-05-07T08:27:27;16.80;99.90
10042;DHT22;5061;49.068;12.058;2023-05-07T08:30:49;16.90;99.90
10042;DHT22;5061;49.068;12.058;2023-05-07T08:34:12;17.10;99.90
10042;DHT22;5061;49.068;12.058;2023-05-07T08:37:34;17.20;99.90
10042;DHT22;5061;49.068;12.058;2023-05-07T08:40:55;17.20;99.90
10042;DHT22;5061;49.068;12.058;2023-05-07T08:44:16;17.30;99.90
10042;DHT22;5061;49.068;12.058;2023-05-07T08:47:47;17.40;99.90
10042;DHT22;5061;49.068;12.058;2023-05-07T08:51:18;17.50;99.90
10042;DHT22;5061;49.068;12.058;2023-05-07T08:54:40;17.60;99.90
10042;DHT22;5061;49.068;12.058;2023-05-07T08:58:01;17.60;99.90
10042;DHT22;5061;49.068;12.058;2023-05-07T09:01:23;17.80;99.90
10042;DHT22;5061;49.068;12.058;2023-05-07T09:04:45;17.90;99.90
10042;DHT22;5061;49.068;12.058;2023-05-07T09:08:08;18.00;99.90
10042;DHT22;5061;49.068;12.058;2023-05-07T09:11:29;18.00;99.90
10042;DHT22;5061;49.068;12.058;2023-05-07T09:14:53;18.10;99.90
10042;DHT22;5061;49.068;12.058;2023-05-07T09:18:14;18.20;99.90
10042;DHT22;5061;49.068;12.058;2023-05-07T09:21:35;18.30;99.90
10042;DHT22;5061;49.068;12.058;2023-05-07T09:24:57;18.40;99.90
10042;DHT22;5061;49.068;12.058;2023-05-07T09:28:18;18.50;99.90
10042;DHT22;5061;49.068;12.058;2023-05-07T09:31:39;18.60;99.90
10042;DHT22;5061;49.068;12.058;2023-05-07T09:35:01;18.70;99.90
10042;DHT22;5061;49.068;12.058;2023-05-07T09:38:23;18.90;99.90
10042;DHT22;5061;49.068;12.058;2023-05-07T09:41:48;19.10;99.90
10042;DHT22;5061;49.068;12.058;2023-05-07T09:45:10;19.20;99.90
10042;DHT22;5061;49.068;12.058;2023-05-07T09:48:33;19.20;99.90
10042;DHT22;5061;49.068;12.058;2023-05-07T09:51:56;19.40;99.90
10042;DHT22;5061;49.068;12.058;2023-05-07T09:55:19;19.50;99.90
10042;DHT22;5061;49.068;12.058;2023-05-07T09:58:42;19.60;99.90
10042;DHT22;5061;49.068;12.058;2023-05-07T10:02:04;19.70;99.90
10042;DHT22;5061;49.068;12.058;2023-05-07T10:05:26;19.80;99.90
10042;DHT22;5061;49.068;12.058;2023-05-07T10:08:48;19.90;99.90
10042;DHT22;5061;49.068;12.058;2023-05-07T10:12:10;19.90;99.90
10042;DHT22;5061;49.068;12.058;2023-05-07T10:15:32;19.90;99.90
10042;DHT22;5061;49.068;12.058;2023-05-07T10:18:54;19.80;99.90
10042;DHT22;5061;49.068;12.058;2023-05-07T10:22:15;19.80;99.90
10042;DHT22;5061;49.068;12.058;2023-05-07T10:25:37;20.00;99.90
10042;DHT22;5061;49.068;12.058;2023-05-07T10:29:07;20.10;99.90
10042;DHT22;5061;49.068;12.058;2023-05-07T10:32:39;20.20;99.90
10042;DHT22;5061;49.068;12.058;2023-05-07T10:36:01;20.40;99.90
10042;DHT22;5061;49.068;12.058;2023-05-07T10:39:25;20.70;99.90
10042;DHT22;5061;49.068;12.058;2023-05-07T10:43:03;20.90;99.90
10042;DHT22;5061;49.068;12.058;2023-05-07T10:46:27;21.00;99.90
10042;DHT22;5061;49.068;12.058;2023-05-07T10:56:40;21.40;99.90
10042;DHT22;5061;49.068;12.058;2023-05-07T11:00:40;21.60;99.90
10042;DHT22;5061;49.068;12.058;2023-05-07T11:04:12;21.80;99.90
10042;DHT22;5061;49.068;12.058;2023-05-07T11:07:34;21.80;99.90
10042;DHT22;5061;49.068;12.058;2023-05-07T11:10:56;21.90;99.90
10042;DHT22;5061;49.068;12.058;2023-05-07T11:14:42;22.00;99.90
10042;DHT22;5061;49.068;12.058;2023-05-07T11:18:06;22.20;99.90
10042;DHT22;5061;49.068;12.058;2023-05-07T11:21:40;22.40;99.90
10042;DHT22;5061;49.068;12.058;2023-05-07T11:25:03;22.60;99.90
10042;DHT22;5061;49.068;12.058;2023-05-07T11:28:27;23.00;99.90
10042;DHT22;5061;49.068;12.058;2023-05-07T11:31:52;23.10;99.90
10042;DHT22;5061;49.068;12.058;2023-05-07T11:35:18;23.20;99.90
10042;DHT22;5061;49.068;12.058;2023-05-07T11:38:39;23.30;99.90
10042;DHT22;5061;49.068;12.058;2023-05-07T11:42:00;23.20;99.90
10042;DHT22;5061;49.068;12.058;2023-05-07T11:45:25;23.10;99.90
10042;DHT22;5061;49.068;12.058;2023-05-07T11:48:46;23.00;99.90
10042;DHT22;5061;49.068;12.058;2023-05-07T11:52:07;22.90;99.90
10042;DHT22;5061;49.068;12.058;2023-05-07T11:55:29;22.80;99.90
10042;DHT22;5061;49.068;12.058;2023-05-07T11:58:50;22.90;99.90
10042;DHT22;5061;49.068;12.058;2023-05-07T12:02:14;22.90;99.90
10042;DHT22;5061;49.068;12.058;2023-05-07T12:05:35;23.10;99.90
10042;DHT22;5061;49.068;12.058;2023-05-07T12:08:57;23.20;99.70
10042;DHT22;5061;49.068;12.058;2023-05-07T12:12:19;23.30;99.70
10042;DHT22;5061;49.068;12.058;2023-05-07T12:15:40;23.20;99.00
10042;DHT22;5061;49.068;12.058;2023-05-07T12:19:01;23.30;99.10
10042;DHT22;5061;49.068;12.058;2023-05-07T12:22:24;23.40;98.70
10042;DHT22;5061;49.068;12.058;2023-05-07T12:25:45;23.40;98.80
10042;DHT22;5061;49.068;12.058;2023-05-07T12:29:09;23.60;98.70
10042;DHT22;5061;49.068;12.058;2023-05-07T12:32:30;23.60;98.60
10042;DHT22;5061;49.068;12.058;2023-05-07T12:35:55;23.70;98.60
10042;DHT22;5061;49.068;12.058;2023-05-07T12:39:17;23.90;98.40
10042;DHT22;5061;49.068;12.058;2023-05-07T12:42:39;24.00;98.40
10042;DHT22;5061;49.068;12.058;2023-05-07T12:46:05;24.20;98.40
10042;DHT22;5061;49.068;12.058;2023-05-07T12:49:26;24.30;97.90
10042;DHT22;5061;49.068;12.058;2023-05-07T12:52:48;24.30;96.90
10042;DHT22;5061;49.068;12.058;2023-05-07T12:56:10;24.30;96.90
10042;DHT22;5061;49.068;12.058;2023-05-07T12:59:36;24.30;96.90
10042;DHT22;5061;49.068;12.058;2023-05-07T13:03:02;24.30;96.60
10042;DHT22;5061;49.068;12.058;2023-05-07T13:06:29;24.30;96.30
10042;DHT22;5061;49.068;12.058;2023-05-07T13:09:56;24.30;95.90
10042;DHT22;5061;49.068;12.058;2023-05-07T13:13:18;24.20;95.70
10042;DHT22;5061;49.068;12.058;2023-05-07T13:16:39;24.20;95.70
10042;DHT22;5061;49.068;12.058;2023-05-07T13:20:01;24.30;95.70
10042;DHT22;5061;49.068;12.058;2023-05-07T13:23:22;24.40;95.50
10042;DHT22;5061;49.068;12.058;2023-05-07T13:26:43;24.50;95.30
10042;DHT22;5061;49.068;12.058;2023-05-07T13:30:05;24.60;95.00
10042;DHT22;5061;49.068;12.058;2023-05-07T13:33:26;24.70;94.60
10042;DHT22;5061;49.068;12.058;2023-05-07T13:36:52;24.70;94.30
10042;DHT22;5061;49.068;12.058;2023-05-07T13:40:14;24.70;94.30
10042;DHT22;5061;49.068;12.058;2023-05-07T13:43:35;24.80;94.30
10042;DHT22;5061;49.068;12.058;2023-05-07T13:46:57;24.80;94.20
10042;DHT22;5061;49.068;12.058;2023-05-07T13:50:18;24.90;94.40
10042;DHT22;5061;49.068;12.058;2023-05-07T13:53:39;25.00;94.80
10042;DHT22;5061;49.068;12.058;2023-05-07T13:57:00;25.10;94.00
10042;DHT22;5061;49.068;12.058;2023-05-07T14:00:25;25.20;93.70
10042;DHT22;5061;49.068;12.058;2023-05-07T14:03:47;25.30;93.30
10042;DHT22;5061;49.068;12.058;2023-05-07T14:07:08;25.30;93.20
10042;DHT22;5061;49.068;12.058;2023-05-07T14:10:29;25.30;92.70
10042;DHT22;5061;49.068;12.058;2023-05-07T14:13:51;25.30;92.00
10042;DHT22;5061;49.068;12.058;2023-05-07T14:17:12;25.20;92.40
10042;DHT22;5061;49.068;12.058;2023-05-07T14:20:33;25.30;92.30
10042;DHT22;5061;49.068;12.058;2023-05-07T14:23:57;25.50;92.40
10042;DHT22;5061;49.068;12.058;2023-05-07T14:27:17;25.60;92.00
10042;DHT22;5061;49.068;12.058;2023-05-07T14:30:38;25.70;92.10
10042;DHT22;5061;49.068;12.058;2023-05-07T14:34:00;25.80;91.10
10042;DHT22;5061;49.068;12.058;2023-05-07T14:37:20;25.60;90.60
10042;DHT22;5061;49.068;12.058;2023-05-07T14:40:41;25.50;90.70
10042;DHT22;5061;49.068;12.058;2023-05-07T14:44:03;25.50;90.90
10042;DHT22;5061;49.068;12.058;2023-05-07T14:47:24;25.40;90.50
10042;DHT22;5061;49.068;12.058;2023-05-07T14:50:47;25.30;90.90
10042;DHT22;5061;49.068;12.058;2023-05-07T14:54:08;25.20;90.80
10042;DHT22;5061;49.068;12.058;2023-05-07T14:57:30;24.90;90.80
10042;DHT22;5061;49.068;12.058;2023-05-07T15:00:55;24.60;91.20
10042;DHT22;5061;49.068;12.058;2023-05-07T15:04:16;24.50;91.60
10042;DHT22;5061;49.068;12.058;2023-05-07T15:07:36;24.30;91.60
10042;DHT22;5061;49.068;12.058;2023-05-07T15:10:58;24.10;91.50
10042;DHT22;5061;49.068;12.058;2023-05-07T15:14:19;23.90;91.70
10042;DHT22;5061;49.068;12.058;2023-05-07T15:17:45;23.80;91.80
10042;DHT22;5061;49.068;12.058;2023-05-07T15:21:06;23.70;91.90
10042;DHT22;5061;49.068;12.058;2023-05-07T15:24:27;23.60;91.70
10042;DHT22;5061;49.068;12.058;2023-05-07T15:27:49;23.50;91.80
10042;DHT22;5061;49.068;12.058;2023-05-07T15:31:10;23.40;92.00
10042;DHT22;5061;49.068;12.058;2023-05-07T15:34:32;23.40;91.90
10042;DHT22;5061;49.068;12.058;2023-05-07T15:37:53;23.20;91.80
10042;DHT22;5061;49.068;12.058;2023-05-07T15:41:14;23.20;91.90
10042;DHT22;5061;49.068;12.058;2023-05-07T15:44:35;23.10;91.90
10042;DHT22;5061;49.068;12.058;2023-05-07T15:47:56;23.00;91.70
10042;DHT22;5061;49.068;12.058;2023-05-07T15:51:17;22.90;91.70
10042;DHT22;5061;49.068;12.058;2023-05-07T15:54:38;22.80;91.90
10042;DHT22;5061;49.068;12.058;2023-05-07T15:57:59;22.80;91.90
10042;DHT22;5061;49.068;12.058;2023-05-07T16:01:20;22.70;91.90
10042;DHT22;5061;49.068;12.058;2023-05-07T16:04:41;22.60;91.90
10042;DHT22;5061;49.068;12.058;2023-05-07T16:08:03;22.50;92.00
10042;DHT22;5061;49.068;12.058;2023-05-07T16:11:25;22.40;92.20
10042;DHT22;5061;49.068;12.058;2023-05-07T16:14:46;22.20;92.20
10042;DHT22;5061;49.068;12.058;2023-05-07T16:18:07;22.10;92.30
10042;DHT22;5061;49.068;12.058;2023-05-07T16:21:28;22.00;92.40
10042;DHT22;5061;49.068;12.058;2023-05-07T16:24:50;21.90;92.50
10042;DHT22;5061;49.068;12.058;2023-05-07T16:28:12;21.80;92.50
10042;DHT22;5061;49.068;12.058;2023-05-07T16:31:33;21.60;92.50
10042;DHT22;5061;49.068;12.058;2023-05-07T16:34:54;21.50;92.30
10042;DHT22;5061;49.068;12.058;2023-05-07T16:38:15;21.40;92.50
10042;DHT22;5061;49.068;12.058;2023-05-07T16:41:35;21.20;92.50
10042;DHT22;5061;49.068;12.058;2023-05-07T16:44:56;21.10;92.60
10042;DHT22;5061;49.068;12.058;2023-05-07T16:48:18;21.00;92.70
10042;DHT22;5061;49.068;12.058;2023-05-07T16:51:39;20.90;92.80
10042;DHT22;5061;49.068;12.058;2023-05-07T16:55:03;20.70;92.70
10042;DHT22;5061;49.068;12.058;2023-05-07T16:58:24;20.60;92.80
10042;DHT22;5061;49.068;12.058;2023-05-07T17:01:46;20.50;92.80
10042;DHT22;5061;49.068;12.058;2023-05-07T17:05:08;20.40;92.90
10042;DHT22;5061;49.068;12.058;2023-05-07T17:08:29;20.30;92.90
10042;DHT22;5061;49.068;12.058;2023-05-07T17:11:50;20.20;93.00
10042;DHT22;5061;49.068;12.058;2023-05-07T17:15:11;20.10;93.10
10042;DHT22;5061;49.068;12.058;2023-05-07T17:18:32;20.00;93.20
10042;DHT22;5061;49.068;12.058;2023-05-07T17:21:53;19.90;93.00
10042;DHT22;5061;49.068;12.058;2023-05-07T17:25:14;19.80;93.00
10042;DHT22;5061;49.068;12.058;2023-05-07T17:28:37;19.70;93.10
10042;DHT22;5061;49.068;12.058;2023-05-07T17:31:58;19.60;93.10
10042;DHT22;5061;49.068;12.058;2023-05-07T17:35:19;19.50;93.20
10042;DHT22;5061;49.068;12.058;2023-05-07T17:38:40;19.40;93.20
10042;DHT22;5061;49.068;12.058;2023-05-07T17:42:01;19.30;93.40
10042;DHT22;5061;49.068;12.058;2023-05-07T17:45:22;19.20;93.40
10042;DHT22;5061;49.068;12.058;2023-05-07T17:48:43;19.10;93.60
10042;DHT22;5061;49.068;12.058;2023-05-07T17:52:05;19.00;93.60
10042;DHT22;5061;49.068;12.058;2023-05-07T17:55:26;18.90;93.80
10042;DHT22;5061;49.068;12.058;2023-05-07T17:58:48;18.80;93.90
10042;DHT22;5061;49.068;12.058;2023-05-07T18:02:09;18.70;94.00
10042;DHT22;5061;49.068;12.058;2023-05-07T18:05:30;18.60;94.10
10042;DHT22;5061;49.068;12.058;2023-05-07T18:08:51;18.50;94.20
10042;DHT22;5061;49.068;12.058;2023-05-07T18:12:14;18.40;94.20
10042;DHT22;5061;49.068;12.058;2023-05-07T18:15:35;18.30;94.30
10042;DHT22;5061;49.068;12.058;2023-05-07T18:18:56;18.20;94.40
10042;DHT22;5061;49.068;12.058;2023-05-07T18:22:17;18.10;94.40
10042;DHT22;5061;49.068;12.058;2023-05-07T18:25:38;18.00;94.50
10042;DHT22;5061;49.068;12.058;2023-05-07T18:28:59;18.00;94.60
10042;DHT22;5061;49.068;12.058;2023-05-07T18:32:20;17.90;94.70
10042;DHT22;5061;49.068;12.058;2023-05-07T18:35:41;17.80;94.80
10042;DHT22;5061;49.068;12.058;2023-05-07T18:39:02;17.70;94.90
10042;DHT22;5061;49.068;12.058;2023-05-07T18:42:23;17.70;95.00
10042;DHT22;5061;49.068;12.058;2023-05-07T18:45:48;17.60;95.00
10042;DHT22;5061;49.068;12.058;2023-05-07T18:49:09;17.50;95.10
10042;DHT22;5061;49.068;12.058;2023-05-07T18:52:30;17.40;95.20
10042;DHT22;5061;49.068;12.058;2023-05-07T18:55:51;17.30;95.30
10042;DHT22;5061;49.068;12.058;2023-05-07T18:59:12;17.20;95.30
10042;DHT22;5061;49.068;12.058;2023-05-07T19:02:33;17.10;95.40
10042;DHT22;5061;49.068;12.058;2023-05-07T19:05:54;17.00;95.40
10042;DHT22;5061;49.068;12.058;2023-05-07T19:09:16;17.00;95.50
10042;DHT22;5061;49.068;12.058;2023-05-07T19:12:37;16.90;95.90
10042;DHT22;5061;49.068;12.058;2023-05-07T19:15:58;16.80;95.60
10042;DHT22;5061;49.068;12.058;2023-05-07T19:19:20;16.80;95.80
10042;DHT22;5061;49.068;12.058;2023-05-07T19:22:41;16.80;95.80
10042;DHT22;5061;49.068;12.058;2023-05-07T19:26:02;16.70;95.90
10042;DHT22;5061;49.068;12.058;2023-05-07T19:29:23;16.60;95.90
10042;DHT22;5061;49.068;12.058;2023-05-07T19:32:45;16.60;96.00
10042;DHT22;5061;49.068;12.058;2023-05-07T19:36:06;16.50;96.30
10042;DHT22;5061;49.068;12.058;2023-05-07T19:39:27;16.50;96.10
10042;DHT22;5061;49.068;12.058;2023-05-07T19:42:48;16.40;96.20
10042;DHT22;5061;49.068;12.058;2023-05-07T19:46:09;16.40;96.30
10042;DHT22;5061;49.068;12.058;2023-05-07T19:49:30;16.30;96.20
10042;DHT22;5061;49.068;12.058;2023-05-07T19:52:51;16.30;96.30
10042;DHT22;5061;49.068;12.058;2023-05-07T19:56:12;16.30;96.40
10042;DHT22;5061;49.068;12.058;2023-05-07T19:59:34;16.20;96.30
10042;DHT22;5061;49.068;12.058;2023-05-07T20:02:55;16.10;96.30
10042;DHT22;5061;49.068;12.058;2023-05-07T20:06:16;16.10;96.40
10042;DHT22;5061;49.068;12.058;2023-05-07T20:09:37;16.10;96.40
10042;DHT22;5061;49.068;12.058;2023-05-07T20:12:59;16.00;96.40
10042;DHT22;5061;49.068;12.058;2023-05-07T20:16:20;16.00;96.40
10042;DHT22;5061;49.068;12.058;2023-05-07T20:19:41;16.00;96.40
10042;DHT22;5061;49.068;12.058;2023-05-07T20:23:02;16.00;96.50
10042;DHT22;5061;49.068;12.058;2023-05-07T20:26:23;15.90;96.50
10042;DHT22;5061;49.068;12.058;2023-05-07T20:29:46;15.90;96.60
10042;DHT22;5061;49.068;12.058;2023-05-07T20:33:07;15.80;96.50
10042;DHT22;5061;49.068;12.058;2023-05-07T20:36:29;15.80;96.60
10042;DHT22;5061;49.068;12.058;2023-05-07T20:39:50;15.70;96.60
10042;DHT22;5061;49.068;12.058;2023-05-07T20:43:12;15.70;96.70
10042;DHT22;5061;49.068;12.058;2023-05-07T20:46:33;15.60;96.60
10042;DHT22;5061;49.068;12.058;2023-05-07T20:49:56;15.60;96.70
10042;DHT22;5061;49.068;12.058;2023-05-07T20:53:17;15.60;96.80
10042;DHT22;5061;49.068;12.058;2023-05-07T20:56:38;15.60;96.80
10042;DHT22;5061;49.068;12.058;2023-05-07T20:59:59;15.50;96.80
10042;DHT22;5061;49.068;12.058;2023-05-07T21:03:22;15.50;96.80
10042;DHT22;5061;49.068;12.058;2023-05-07T21:06:43;15.50;96.90
10042;DHT22;5061;49.068;12.058;2023-05-07T21:10:04;15.40;96.80
10042;DHT22;5061;49.068;12.058;2023-05-07T21:13:25;15.40;97.00
10042;DHT22;5061;49.068;12.058;2023-05-07T21:16:46;15.40;97.00
10042;DHT22;5061;49.068;12.058;2023-05-07T21:20:08;15.30;97.00
10042;DHT22;5061;49.068;12.058;2023-05-07T21:23:29;15.30;97.00